WXM80 ListenWXM80 Stop

You find our weather info also at:

UK Metoffice

WeatherCloud

Weather Underground

Northeastern Weather Network

AWEKAS

Citizen Weather Observer Program (CWOP)

HAMweather, WeatherForYou, PWS Weather


Weather Underground History page Text

Daily Summary for February 6, 2018 Units:  Both    English   Metric
« Previous Day
Next Day »
Daily Weekly Monthly Yearly Custom
  High: Low: Average:
Temperature: 37.9 °F /  3.3 °C 24.4 °F /  -4.2 °C 29.2 °F /  -1.6 °C
Dew Point: 26.5 °F /  -3.1 °C 14.2 °F /  -9.9 °C 21.2 °F /  -6 °C
Humidity: 88 % 60 % 72 %
Wind Speed: 6.4 mph /  10.3 km/h - 0.6 mph /  1 km/h
Wind Gust: 9.2 mph /  14.8 km/h - -
Wind:- - SE
Pressure: 30.26 in /  1024.6 hPa 30.04 in /  1017.2 hPa -
Precipitation: 0.00 in /  0 mm    
Historical Graphs
 
 
Tabular Data for February 6, 2018
Time Temperature Dew Point Pressure Wind Wind Speed Wind Gust Humidity Rainfall Rate (Hourly)
00:02 24.8 °F /  -4 °C 14.3 °F /  -9.8 °C 30.05 in /  1017.5 hPa West 1.7 mph /  2.7 km/h 4.6 mph /  7.4 km/h 64 % 0.00 in /  0 mm
00:07 24.8 °F /  -4 °C 14.3 °F /  -9.8 °C 30.06 in /  1017.8 hPa West 0.2 mph /  0.3 km/h 1.2 mph /  1.9 km/h 64 % 0.00 in /  0 mm
00:12 24.7 °F /  -4.1 °C 14.2 °F /  -9.9 °C 30.06 in /  1017.8 hPa West 0.3 mph /  0.5 km/h 2.0 mph /  3.2 km/h 64 % 0.00 in /  0 mm
00:17 24.7 °F /  -4.1 °C 14.6 °F /  -9.7 °C 30.06 in /  1017.8 hPa WNW 1.6 mph /  2.6 km/h 2.3 mph /  3.7 km/h 65 % 0.00 in /  0 mm
00:22 24.7 °F /  -4.1 °C 14.6 °F /  -9.7 °C 30.06 in /  1017.8 hPa Calm   1.2 mph /  1.9 km/h 65 % 0.00 in /  0 mm
00:27 24.7 °F /  -4.1 °C 14.9 °F /  -9.5 °C 30.06 in /  1017.8 hPa Calm     66 % 0.00 in /  0 mm
00:32 24.7 °F /  -4.1 °C 14.6 °F /  -9.7 °C 30.06 in /  1017.8 hPa WNW 0.7 mph /  1.1 km/h 1.2 mph /  1.9 km/h 65 % 0.00 in /  0 mm
00:37 24.6 °F /  -4.1 °C 14.9 °F /  -9.5 °C 30.06 in /  1017.8 hPa Calm   1.2 mph /  1.9 km/h 66 % 0.00 in /  0 mm
00:42 24.6 °F /  -4.1 °C 14.5 °F /  -9.7 °C 30.06 in /  1017.8 hPa WNW 0.5 mph /  0.8 km/h 3.5 mph /  5.6 km/h 65 % 0.00 in /  0 mm
00:47 24.6 °F /  -4.1 °C 14.5 °F /  -9.7 °C 30.07 in /  1018.2 hPa Calm     65 % 0.00 in /  0 mm
00:53 24.5 °F /  -4.2 °C 14.8 °F /  -9.6 °C 30.06 in /  1017.8 hPa WNW 0.1 mph /  0.2 km/h 2.3 mph /  3.7 km/h 66 % 0.00 in /  0 mm
00:58 24.5 °F /  -4.2 °C 14.8 °F /  -9.6 °C 30.06 in /  1017.8 hPa WNW 0.5 mph /  0.8 km/h 2.3 mph /  3.7 km/h 66 % 0.00 in /  0 mm
01:03 24.4 °F /  -4.2 °C 14.7 °F /  -9.6 °C 30.06 in /  1017.8 hPa WNW 0.9 mph /  1.4 km/h 3.5 mph /  5.6 km/h 66 % 0.00 in /  0 mm
01:09 24.4 °F /  -4.2 °C 14.7 °F /  -9.6 °C 30.07 in /  1018.2 hPa Calm   3.5 mph /  5.6 km/h 66 % 0.00 in /  0 mm
01:14 24.4 °F /  -4.2 °C 14.7 °F /  -9.6 °C 30.07 in /  1018.2 hPa WNW 1.5 mph /  2.4 km/h 2.3 mph /  3.7 km/h 66 % 0.00 in /  0 mm
01:19 24.4 °F /  -4.2 °C 14.7 °F /  -9.6 °C 30.06 in /  1017.8 hPa Calm     66 % 0.00 in /  0 mm
01:24 24.4 °F /  -4.2 °C 15.0 °F /  -9.4 °C 30.07 in /  1018.2 hPa Calm     67 % 0.00 in /  0 mm
01:29 24.5 °F /  -4.2 °C 15.1 °F /  -9.4 °C 30.07 in /  1018.2 hPa Calm     67 % 0.00 in /  0 mm
01:34 24.5 °F /  -4.2 °C 15.4 °F /  -9.2 °C 30.07 in /  1018.2 hPa Calm     68 % 0.00 in /  0 mm
01:39 24.5 °F /  -4.2 °C 15.4 °F /  -9.2 °C 30.07 in /  1018.2 hPa WNW 0.8 mph /  1.3 km/h 2.3 mph /  3.7 km/h 68 % 0.00 in /  0 mm
01:44 24.6 °F /  -4.1 °C 15.2 °F /  -9.3 °C 30.07 in /  1018.2 hPa Calm     67 % 0.00 in /  0 mm
01:49 24.6 °F /  -4.1 °C 14.9 °F /  -9.5 °C 30.07 in /  1018.2 hPa Calm     66 % 0.00 in /  0 mm
01:54 24.7 °F /  -4.1 °C 14.9 °F /  -9.5 °C 30.07 in /  1018.2 hPa WNW 0.1 mph /  0.2 km/h   66 % 0.00 in /  0 mm
01:59 24.7 °F /  -4.1 °C 15.3 °F /  -9.3 °C 30.06 in /  1017.8 hPa Calm     67 % 0.00 in /  0 mm
02:05 24.8 °F /  -4 °C 15.7 °F /  -9.1 °C 30.07 in /  1018.2 hPa Calm     68 % 0.00 in /  0 mm
02:10 24.9 °F /  -3.9 °C 15.8 °F /  -9 °C 30.07 in /  1018.2 hPa Calm     68 % 0.00 in /  0 mm
02:15 24.9 °F /  -3.9 °C 15.8 °F /  -9 °C 30.06 in /  1017.8 hPa Calm     68 % 0.00 in /  0 mm
02:20 25.0 °F /  -3.9 °C 15.9 °F /  -8.9 °C 30.06 in /  1017.8 hPa Calm     68 % 0.00 in /  0 mm
02:25 25.1 °F /  -3.8 °C 16.4 °F /  -8.7 °C 30.06 in /  1017.8 hPa Calm     69 % 0.00 in /  0 mm
02:30 25.1 °F /  -3.8 °C 16.4 °F /  -8.7 °C 30.06 in /  1017.8 hPa Calm     69 % 0.00 in /  0 mm
02:35 25.2 °F /  -3.8 °C 16.8 °F /  -8.4 °C 30.06 in /  1017.8 hPa Calm     70 % 0.00 in /  0 mm
02:40 25.2 °F /  -3.8 °C 17.1 °F /  -8.3 °C 30.05 in /  1017.5 hPa Calm     71 % 0.00 in /  0 mm
02:45 25.3 °F /  -3.7 °C 17.5 °F /  -8.1 °C 30.06 in /  1017.8 hPa Calm     72 % 0.00 in /  0 mm
02:50 25.3 °F /  -3.7 °C 17.5 °F /  -8.1 °C 30.05 in /  1017.5 hPa Calm     72 % 0.00 in /  0 mm
02:55 25.3 °F /  -3.7 °C 17.5 °F /  -8.1 °C 30.06 in /  1017.8 hPa Calm     72 % 0.00 in /  0 mm
03:00 25.3 °F /  -3.7 °C 17.5 °F /  -8.1 °C 30.05 in /  1017.5 hPa Calm     72 % 0.00 in /  0 mm
03:05 25.3 °F /  -3.7 °C 17.5 °F /  -8.1 °C 30.04 in /  1017.2 hPa Calm     72 % 0.00 in /  0 mm
03:10 25.3 °F /  -3.7 °C 17.5 °F /  -8.1 °C 30.04 in /  1017.2 hPa Calm     72 % 0.00 in /  0 mm
03:15 25.3 °F /  -3.7 °C 17.5 °F /  -8.1 °C 30.04 in /  1017.2 hPa Calm     72 % 0.00 in /  0 mm
03:20 25.2 °F /  -3.8 °C 17.4 °F /  -8.1 °C 30.05 in /  1017.5 hPa Calm     72 % 0.00 in /  0 mm
03:25 25.2 °F /  -3.8 °C 17.8 °F /  -7.9 °C 30.04 in /  1017.2 hPa Calm     73 % 0.00 in /  0 mm
03:31 25.2 °F /  -3.8 °C 17.4 °F /  -8.1 °C 30.05 in /  1017.5 hPa Calm     72 % 0.00 in /  0 mm
03:36 25.1 °F /  -3.8 °C 17.7 °F /  -7.9 °C 30.05 in /  1017.5 hPa Calm     73 % 0.00 in /  0 mm
03:41 25.1 °F /  -3.8 °C 17.7 °F /  -7.9 °C 30.05 in /  1017.5 hPa Calm     73 % 0.00 in /  0 mm
03:46 25.1 °F /  -3.8 °C 17.7 °F /  -7.9 °C 30.06 in /  1017.8 hPa Calm     73 % 0.00 in /  0 mm
03:51 25.1 °F /  -3.8 °C 17.7 °F /  -7.9 °C 30.06 in /  1017.8 hPa Calm     73 % 0.00 in /  0 mm
03:56 25.1 °F /  -3.8 °C 18.0 °F /  -7.8 °C 30.06 in /  1017.8 hPa Calm     74 % 0.00 in /  0 mm
04:01 25.1 °F /  -3.8 °C 18.0 °F /  -7.8 °C 30.06 in /  1017.8 hPa Calm     74 % 0.00 in /  0 mm
04:06 25.1 °F /  -3.8 °C 18.0 °F /  -7.8 °C 30.06 in /  1017.8 hPa Calm     74 % 0.00 in /  0 mm
04:11 25.1 °F /  -3.8 °C 18.0 °F /  -7.8 °C 30.06 in /  1017.8 hPa Calm     74 % 0.00 in /  0 mm
04:16 25.1 °F /  -3.8 °C 18.0 °F /  -7.8 °C 30.06 in /  1017.8 hPa Calm     74 % 0.00 in /  0 mm
04:21 25.1 °F /  -3.8 °C 18.3 °F /  -7.6 °C 30.06 in /  1017.8 hPa Calm     75 % 0.00 in /  0 mm
04:26 25.1 °F /  -3.8 °C 18.3 °F /  -7.6 °C 30.06 in /  1017.8 hPa Calm     75 % 0.00 in /  0 mm
04:31 25.2 °F /  -3.8 °C 18.4 °F /  -7.6 °C 30.06 in /  1017.8 hPa Calm     75 % 0.00 in /  0 mm
04:37 25.2 °F /  -3.8 °C 18.4 °F /  -7.6 °C 30.06 in /  1017.8 hPa Calm   1.2 mph /  1.9 km/h 75 % 0.00 in /  0 mm
04:42 25.2 °F /  -3.8 °C 18.4 °F /  -7.6 °C 30.06 in /  1017.8 hPa Calm     75 % 0.00 in /  0 mm
04:47 25.3 °F /  -3.7 °C 18.5 °F /  -7.5 °C 30.06 in /  1017.8 hPa Calm     75 % 0.00 in /  0 mm
04:52 25.3 °F /  -3.7 °C 18.5 °F /  -7.5 °C 30.07 in /  1018.2 hPa Calm     75 % 0.00 in /  0 mm
04:57 25.4 °F /  -3.7 °C 18.6 °F /  -7.4 °C 30.07 in /  1018.2 hPa Calm     75 % 0.00 in /  0 mm
05:02 25.4 °F /  -3.7 °C 18.6 °F /  -7.4 °C 30.06 in /  1017.8 hPa Calm     75 % 0.00 in /  0 mm
05:07 25.5 °F /  -3.6 °C 18.0 °F /  -7.8 °C 30.06 in /  1017.8 hPa Calm     73 % 0.00 in /  0 mm
05:12 25.6 °F /  -3.6 °C 18.1 °F /  -7.7 °C 30.06 in /  1017.8 hPa WNW 0.2 mph /  0.3 km/h 1.2 mph /  1.9 km/h 73 % 0.00 in /  0 mm
05:17 25.7 °F /  -3.5 °C 18.2 °F /  -7.7 °C 30.06 in /  1017.8 hPa Calm     73 % 0.00 in /  0 mm
05:22 25.7 °F /  -3.5 °C 17.9 °F /  -7.8 °C 30.06 in /  1017.8 hPa Calm     72 % 0.00 in /  0 mm
05:27 25.8 °F /  -3.4 °C 18.0 °F /  -7.8 °C 30.07 in /  1018.2 hPa WNW 0.2 mph /  0.3 km/h 1.2 mph /  1.9 km/h 72 % 0.00 in /  0 mm
05:32 25.8 °F /  -3.4 °C 18.0 °F /  -7.8 °C 30.06 in /  1017.8 hPa Calm     72 % 0.00 in /  0 mm
05:37 25.9 °F /  -3.4 °C 17.8 °F /  -7.9 °C 30.06 in /  1017.8 hPa SW 0.9 mph /  1.4 km/h 2.3 mph /  3.7 km/h 71 % 0.00 in /  0 mm
05:42 26.0 °F /  -3.3 °C 17.9 °F /  -7.8 °C 30.06 in /  1017.8 hPa Calm     71 % 0.00 in /  0 mm
05:47 26.0 °F /  -3.3 °C 17.9 °F /  -7.8 °C 30.06 in /  1017.8 hPa SSE 2.4 mph /  3.9 km/h 3.5 mph /  5.6 km/h 71 % 0.00 in /  0 mm
05:52 26.0 °F /  -3.3 °C 17.6 °F /  -8 °C 30.06 in /  1017.8 hPa SSE 1.1 mph /  1.8 km/h 3.5 mph /  5.6 km/h 70 % 0.00 in /  0 mm
05:57 26.0 °F /  -3.3 °C 17.6 °F /  -8 °C 30.06 in /  1017.8 hPa SSE 1.0 mph /  1.6 km/h 3.0 mph /  4.8 km/h 70 % 0.00 in /  0 mm
06:02 26.0 °F /  -3.3 °C 17.6 °F /  -8 °C 30.06 in /  1017.8 hPa SSE 1.0 mph /  1.6 km/h 5.8 mph /  9.3 km/h 70 % 0.00 in /  0 mm
06:07 26.0 °F /  -3.3 °C 17.2 °F /  -8.2 °C 30.06 in /  1017.8 hPa Calm   1.2 mph /  1.9 km/h 69 % 0.00 in /  0 mm
06:13 26.0 °F /  -3.3 °C 17.2 °F /  -8.2 °C 30.07 in /  1018.2 hPa SSE 2.0 mph /  3.2 km/h 3.5 mph /  5.6 km/h 69 % 0.00 in /  0 mm
06:18 26.1 °F /  -3.3 °C 17.3 °F /  -8.2 °C 30.07 in /  1018.2 hPa SSE 2.0 mph /  3.2 km/h 3.0 mph /  4.8 km/h 69 % 0.00 in /  0 mm
06:23 26.1 °F /  -3.3 °C 17.0 °F /  -8.3 °C 30.08 in /  1018.5 hPa SSE 2.0 mph /  3.2 km/h 3.5 mph /  5.6 km/h 68 % 0.00 in /  0 mm
06:28 26.2 °F /  -3.2 °C 17.4 °F /  -8.1 °C 30.08 in /  1018.5 hPa SSE 0.5 mph /  0.8 km/h 3.5 mph /  5.6 km/h 69 % 0.00 in /  0 mm
06:33 26.2 °F /  -3.2 °C 17.4 °F /  -8.1 °C 30.08 in /  1018.5 hPa SSE 3.8 mph /  6.1 km/h 5.8 mph /  9.3 km/h 69 % 0.00 in /  0 mm
06:38 26.3 °F /  -3.2 °C 17.5 °F /  -8.1 °C 30.08 in /  1018.5 hPa SE 1.1 mph /  1.8 km/h 3.5 mph /  5.6 km/h 69 % 0.00 in /  0 mm
06:43 26.3 °F /  -3.2 °C 17.5 °F /  -8.1 °C 30.09 in /  1018.8 hPa Calm     69 % 0.00 in /  0 mm
06:48 26.4 °F /  -3.1 °C 17.6 °F /  -8 °C 30.09 in /  1018.8 hPa SE 0.3 mph /  0.5 km/h 1.2 mph /  1.9 km/h 69 % 0.00 in /  0 mm
06:53 26.5 °F /  -3.1 °C 17.4 °F /  -8.1 °C 30.09 in /  1018.8 hPa Calm     68 % 0.00 in /  0 mm
06:58 26.5 °F /  -3.1 °C 17.7 °F /  -7.9 °C 30.10 in /  1019.2 hPa Calm     69 % 0.00 in /  0 mm
07:03 26.5 °F /  -3.1 °C 17.7 °F /  -7.9 °C 30.10 in /  1019.2 hPa Calm     69 % 0.00 in /  0 mm
07:08 26.6 °F /  -3 °C 17.8 °F /  -7.9 °C 30.10 in /  1019.2 hPa Calm     69 % 0.00 in /  0 mm
07:13 26.6 °F /  -3 °C 17.8 °F /  -7.9 °C 30.11 in /  1019.5 hPa Calm     69 % 0.00 in /  0 mm
07:18 26.6 °F /  -3 °C 17.8 °F /  -7.9 °C 30.11 in /  1019.5 hPa Calm     69 % 0.00 in /  0 mm
07:23 26.6 °F /  -3 °C 18.1 °F /  -7.7 °C 30.12 in /  1019.9 hPa Calm     70 % 0.00 in /  0 mm
07:29 26.7 °F /  -2.9 °C 18.2 °F /  -7.7 °C 30.12 in /  1019.9 hPa Calm     70 % 0.00 in /  0 mm
07:34 26.7 °F /  -2.9 °C 18.2 °F /  -7.7 °C 30.12 in /  1019.9 hPa Calm     70 % 0.00 in /  0 mm
07:39 26.7 °F /  -2.9 °C 18.2 °F /  -7.7 °C 30.12 in /  1019.9 hPa Calm     70 % 0.00 in /  0 mm
07:44 26.8 °F /  -2.9 °C 18.3 °F /  -7.6 °C 30.13 in /  1020.2 hPa Calm     70 % 0.00 in /  0 mm
07:49 26.9 °F /  -2.8 °C 18.4 °F /  -7.6 °C 30.13 in /  1020.2 hPa Calm     70 % 0.00 in /  0 mm
07:54 26.9 °F /  -2.8 °C 18.4 °F /  -7.6 °C 30.13 in /  1020.2 hPa Calm     70 % 0.00 in /  0 mm
07:59 27.0 °F /  -2.8 °C 18.5 °F /  -7.5 °C 30.13 in /  1020.2 hPa Calm     70 % 0.00 in /  0 mm
08:04 27.1 °F /  -2.7 °C 18.6 °F /  -7.4 °C 30.13 in /  1020.2 hPa Calm     70 % 0.00 in /  0 mm
08:09 27.2 °F /  -2.7 °C 18.7 °F /  -7.4 °C 30.13 in /  1020.2 hPa Calm     70 % 0.00 in /  0 mm
08:14 27.4 °F /  -2.6 °C 18.9 °F /  -7.3 °C 30.13 in /  1020.2 hPa Calm     70 % 0.00 in /  0 mm
08:19 27.5 °F /  -2.5 °C 19.0 °F /  -7.2 °C 30.13 in /  1020.2 hPa Calm     70 % 0.00 in /  0 mm
08:24 27.5 °F /  -2.5 °C 19.0 °F /  -7.2 °C 30.13 in /  1020.2 hPa Calm     70 % 0.00 in /  0 mm
08:29 27.7 °F /  -2.4 °C 19.2 °F /  -7.1 °C 30.13 in /  1020.2 hPa Calm     70 % 0.00 in /  0 mm
08:34 27.8 °F /  -2.3 °C 18.9 °F /  -7.3 °C 30.14 in /  1020.5 hPa Calm     69 % 0.00 in /  0 mm
08:39 28.0 °F /  -2.2 °C 19.1 °F /  -7.2 °C 30.15 in /  1020.9 hPa Calm     69 % 0.00 in /  0 mm
08:44 28.1 °F /  -2.2 °C 19.6 °F /  -6.9 °C 30.14 in /  1020.5 hPa Calm     70 % 0.00 in /  0 mm
08:49 28.2 °F /  -2.1 °C 19.7 °F /  -6.8 °C 30.14 in /  1020.5 hPa Calm     70 % 0.00 in /  0 mm
08:54 28.4 °F /  -2 °C 19.9 °F /  -6.7 °C 30.14 in /  1020.5 hPa Calm     70 % 0.00 in /  0 mm
09:00 28.5 °F /  -1.9 °C 20.0 °F /  -6.7 °C 30.14 in /  1020.5 hPa Calm     70 % 0.00 in /  0 mm
09:05 28.6 °F /  -1.9 °C 20.1 °F /  -6.6 °C 30.14 in /  1020.5 hPa SE 0.3 mph /  0.5 km/h 2.0 mph /  3.2 km/h 70 % 0.00 in /  0 mm
09:10 28.7 °F /  -1.8 °C 19.8 °F /  -6.8 °C 30.13 in /  1020.2 hPa SE 0.2 mph /  0.3 km/h 1.2 mph /  1.9 km/h 69 % 0.00 in /  0 mm
09:15 28.8 °F /  -1.8 °C 20.2 °F /  -6.6 °C 30.14 in /  1020.5 hPa Calm     70 % 0.00 in /  0 mm
09:20 28.9 °F /  -1.7 °C 20.0 °F /  -6.7 °C 30.14 in /  1020.5 hPa SE 0.3 mph /  0.5 km/h 2.3 mph /  3.7 km/h 69 % 0.00 in /  0 mm
09:25 29.0 °F /  -1.7 °C 20.1 °F /  -6.6 °C 30.14 in /  1020.5 hPa Calm     69 % 0.00 in /  0 mm
09:30 29.1 °F /  -1.6 °C 20.2 °F /  -6.6 °C 30.15 in /  1020.9 hPa SE 0.5 mph /  0.8 km/h 2.3 mph /  3.7 km/h 69 % 0.00 in /  0 mm
09:35 29.2 °F /  -1.6 °C 20.3 °F /  -6.5 °C 30.14 in /  1020.5 hPa Calm     69 % 0.00 in /  0 mm
09:40 29.3 °F /  -1.5 °C 20.4 °F /  -6.4 °C 30.15 in /  1020.9 hPa Calm     69 % 0.00 in /  0 mm
09:45 29.4 °F /  -1.4 °C 20.5 °F /  -6.4 °C 30.14 in /  1020.5 hPa Calm     69 % 0.00 in /  0 mm
09:50 29.4 °F /  -1.4 °C 20.5 °F /  -6.4 °C 30.15 in /  1020.9 hPa Calm     69 % 0.00 in /  0 mm
09:55 29.6 °F /  -1.3 °C 20.7 °F /  -6.3 °C 30.14 in /  1020.5 hPa Calm     69 % 0.00 in /  0 mm
10:00 29.7 °F /  -1.3 °C 20.8 °F /  -6.2 °C 30.14 in /  1020.5 hPa Calm     69 % 0.00 in /  0 mm
10:05 29.8 °F /  -1.2 °C 20.5 °F /  -6.4 °C 30.14 in /  1020.5 hPa SE 1.6 mph /  2.6 km/h 2.3 mph /  3.7 km/h 68 % 0.00 in /  0 mm
10:10 30.0 °F /  -1.1 °C 21.1 °F /  -6.1 °C 30.14 in /  1020.5 hPa Calm     69 % 0.00 in /  0 mm
10:15 30.1 °F /  -1.1 °C 20.8 °F /  -6.2 °C 30.14 in /  1020.5 hPa Calm     68 % 0.00 in /  0 mm
10:20 30.2 °F /  -1 °C 20.9 °F /  -6.2 °C 30.14 in /  1020.5 hPa Calm   1.2 mph /  1.9 km/h 68 % 0.00 in /  0 mm
10:25 30.3 °F /  -0.9 °C 21.0 °F /  -6.1 °C 30.14 in /  1020.5 hPa Calm   1.0 mph /  1.6 km/h 68 % 0.00 in /  0 mm
10:30 30.5 °F /  -0.8 °C 20.8 °F /  -6.2 °C 30.14 in /  1020.5 hPa SE 0.1 mph /  0.2 km/h 2.3 mph /  3.7 km/h 67 % 0.00 in /  0 mm
10:36 30.6 °F /  -0.8 °C 21.0 °F /  -6.1 °C 30.13 in /  1020.2 hPa Calm   2.0 mph /  3.2 km/h 67 % 0.00 in /  0 mm
10:41 30.9 °F /  -0.6 °C 21.2 °F /  -6 °C 30.13 in /  1020.2 hPa Calm   2.0 mph /  3.2 km/h 67 % 0.00 in /  0 mm
10:46 31.1 °F /  -0.5 °C 21.1 °F /  -6.1 °C 30.13 in /  1020.2 hPa Calm     66 % 0.00 in /  0 mm
10:51 31.5 °F /  -0.3 °C 21.8 °F /  -5.7 °C 30.12 in /  1019.9 hPa SE 1.4 mph /  2.3 km/h 3.0 mph /  4.8 km/h 67 % 0.00 in /  0 mm
10:56 31.8 °F /  -0.1 °C 21.8 °F /  -5.7 °C 30.12 in /  1019.9 hPa SE 1.0 mph /  1.6 km/h 3.0 mph /  4.8 km/h 66 % 0.00 in /  0 mm
11:01 32.3 °F /  0.2 °C 22.6 °F /  -5.2 °C 30.12 in /  1019.9 hPa SW 1.1 mph /  1.8 km/h 3.5 mph /  5.6 km/h 67 % 0.00 in /  0 mm
11:06 32.6 °F /  0.3 °C 22.1 °F /  -5.5 °C 30.12 in /  1019.9 hPa Calm   4.0 mph /  6.4 km/h 65 % 0.00 in /  0 mm
11:11 32.9 °F /  0.5 °C 22.4 °F /  -5.3 °C 30.12 in /  1019.9 hPa Calm   1.0 mph /  1.6 km/h 65 % 0.00 in /  0 mm
11:16 33.2 °F /  0.7 °C 22.3 °F /  -5.4 °C 30.12 in /  1019.9 hPa Calm   2.0 mph /  3.2 km/h 64 % 0.00 in /  0 mm
11:21 33.4 °F /  0.8 °C 22.5 °F /  -5.3 °C 30.12 in /  1019.9 hPa Calm   1.0 mph /  1.6 km/h 64 % 0.00 in /  0 mm
11:26 33.6 °F /  0.9 °C 22.3 °F /  -5.4 °C 30.12 in /  1019.9 hPa SSW 2.0 mph /  3.2 km/h 7.0 mph /  11.3 km/h 63 % 0.00 in /  0 mm
11:31 33.9 °F /  1.1 °C 22.2 °F /  -5.4 °C 30.12 in /  1019.9 hPa Calm   4.0 mph /  6.4 km/h 62 % 0.00 in /  0 mm
11:36 34.2 °F /  1.2 °C 22.9 °F /  -5.1 °C 30.12 in /  1019.9 hPa Calm   4.0 mph /  6.4 km/h 63 % 0.00 in /  0 mm
11:40 34.4 °F /  1.3 °C 22.7 °F /  -5.2 °C 30.12 in /  1019.9 hPa SW 5.0 mph /  8 km/h 7.0 mph /  11.3 km/h 62 % 0.00 in /  0 mm
11:45 34.8 °F /  1.6 °C 23.1 °F /  -4.9 °C 30.12 in /  1019.9 hPa Calm   7.0 mph /  11.3 km/h 62 % 0.00 in /  0 mm
11:50 35.0 °F /  1.7 °C 22.5 °F /  -5.3 °C 30.11 in /  1019.5 hPa WSW 2.3 mph /  3.7 km/h 4.6 mph /  7.4 km/h 60 % 0.00 in /  0 mm
11:56 35.2 °F /  1.8 °C 22.7 °F /  -5.2 °C 30.11 in /  1019.5 hPa Calm   4.0 mph /  6.4 km/h 60 % 0.00 in /  0 mm
12:01 35.5 °F /  1.9 °C 23.4 °F /  -4.8 °C 30.11 in /  1019.5 hPa WSW 1.5 mph /  2.4 km/h 3.5 mph /  5.6 km/h 61 % 0.00 in /  0 mm
12:06 35.8 °F /  2.1 °C 23.3 °F /  -4.8 °C 30.11 in /  1019.5 hPa WNW 3.8 mph /  6.1 km/h 5.8 mph /  9.3 km/h 60 % 0.00 in /  0 mm
12:11 35.9 °F /  2.2 °C 24.5 °F /  -4.2 °C 30.11 in /  1019.5 hPa North 2.2 mph /  3.5 km/h 4.0 mph /  6.4 km/h 63 % 0.00 in /  0 mm
12:16 36.0 °F /  2.2 °C 24.6 °F /  -4.1 °C 30.11 in /  1019.5 hPa NNW 1.7 mph /  2.7 km/h 5.0 mph /  8 km/h 63 % 0.00 in /  0 mm
12:21 35.9 °F /  2.2 °C 24.9 °F /  -3.9 °C 30.10 in /  1019.2 hPa NNE 2.4 mph /  3.9 km/h 3.5 mph /  5.6 km/h 64 % 0.00 in /  0 mm
12:26 35.9 °F /  2.2 °C 25.3 °F /  -3.7 °C 30.10 in /  1019.2 hPa NNE 2.6 mph /  4.2 km/h 3.5 mph /  5.6 km/h 65 % 0.00 in /  0 mm
12:31 35.9 °F /  2.2 °C 25.3 °F /  -3.7 °C 30.10 in /  1019.2 hPa NNE 5.7 mph /  9.2 km/h 8.1 mph /  13 km/h 65 % 0.00 in /  0 mm
12:36 35.9 °F /  2.2 °C 25.6 °F /  -3.6 °C 30.09 in /  1018.8 hPa NNE 1.5 mph /  2.4 km/h 2.3 mph /  3.7 km/h 66 % 0.00 in /  0 mm
12:41 36.1 °F /  2.3 °C 25.5 °F /  -3.6 °C 30.09 in /  1018.8 hPa NNE 5.2 mph /  8.4 km/h 6.9 mph /  11.1 km/h 65 % 0.00 in /  0 mm
12:46 36.1 °F /  2.3 °C 25.8 °F /  -3.4 °C 30.09 in /  1018.8 hPa ENE 2.5 mph /  4 km/h 3.5 mph /  5.6 km/h 66 % 0.00 in /  0 mm
12:51 36.2 °F /  2.3 °C 25.9 °F /  -3.4 °C 30.09 in /  1018.8 hPa NNE 5.1 mph /  8.2 km/h 7.0 mph /  11.3 km/h 66 % 0.00 in /  0 mm
12:56 36.2 °F /  2.3 °C 25.6 °F /  -3.6 °C 30.08 in /  1018.5 hPa NE 4.7 mph /  7.6 km/h 6.9 mph /  11.1 km/h 65 % 0.00 in /  0 mm
13:01 36.4 °F /  2.4 °C 25.7 °F /  -3.5 °C 30.08 in /  1018.5 hPa NE 2.4 mph /  3.9 km/h 5.8 mph /  9.3 km/h 65 % 0.00 in /  0 mm
13:06 36.5 °F /  2.5 °C 25.8 °F /  -3.4 °C 30.08 in /  1018.5 hPa NNE 6.4 mph /  10.3 km/h 9.2 mph /  14.8 km/h 65 % 0.00 in /  0 mm
13:11 36.5 °F /  2.5 °C 25.8 °F /  -3.4 °C 30.09 in /  1018.8 hPa North 3.3 mph /  5.3 km/h 5.0 mph /  8 km/h 65 % 0.00 in /  0 mm
13:16 36.8 °F /  2.7 °C 25.8 °F /  -3.4 °C 30.08 in /  1018.5 hPa North 2.9 mph /  4.7 km/h 4.6 mph /  7.4 km/h 64 % 0.00 in /  0 mm
13:22 37.1 °F /  2.8 °C 25.7 °F /  -3.5 °C 30.08 in /  1018.5 hPa NNE 2.9 mph /  4.7 km/h 6.9 mph /  11.1 km/h 63 % 0.00 in /  0 mm
13:27 37.3 °F /  2.9 °C 25.5 °F /  -3.6 °C 30.08 in /  1018.5 hPa North 3.7 mph /  6 km/h 7.0 mph /  11.3 km/h 62 % 0.00 in /  0 mm
13:32 37.4 °F /  3 °C 26.3 °F /  -3.2 °C 30.08 in /  1018.5 hPa NNE 1.4 mph /  2.3 km/h 4.6 mph /  7.4 km/h 64 % 0.00 in /  0 mm
13:37 37.6 °F /  3.1 °C 26.5 °F /  -3.1 °C 30.08 in /  1018.5 hPa NE 3.1 mph /  5 km/h 4.6 mph /  7.4 km/h 64 % 0.00 in /  0 mm
13:42 37.9 °F /  3.3 °C 26.4 °F /  -3.1 °C 30.08 in /  1018.5 hPa NNE 3.5 mph /  5.6 km/h 4.6 mph /  7.4 km/h 63 % 0.00 in /  0 mm
13:47 37.9 °F /  3.3 °C 25.6 °F /  -3.6 °C 30.08 in /  1018.5 hPa NE 4.8 mph /  7.7 km/h 6.9 mph /  11.1 km/h 61 % 0.00 in /  0 mm
13:52 37.5 °F /  3.1 °C 25.3 °F /  -3.7 °C 30.08 in /  1018.5 hPa NE 2.0 mph /  3.2 km/h 3.5 mph /  5.6 km/h 61 % 0.00 in /  0 mm
13:57 37.2 °F /  2.9 °C 25.4 °F /  -3.7 °C 30.08 in /  1018.5 hPa NE 1.2 mph /  1.9 km/h 3.5 mph /  5.6 km/h 62 % 0.00 in /  0 mm
14:02 36.8 °F /  2.7 °C 25.0 °F /  -3.9 °C 30.09 in /  1018.8 hPa NE 1.9 mph /  3.1 km/h 3.5 mph /  5.6 km/h 62 % 0.00 in /  0 mm
14:07 36.2 °F /  2.3 °C 24.4 °F /  -4.2 °C 30.09 in /  1018.8 hPa NE 1.6 mph /  2.6 km/h 3.5 mph /  5.6 km/h 62 % 0.00 in /  0 mm
14:12 35.9 °F /  2.2 °C 24.9 °F /  -3.9 °C 30.09 in /  1018.8 hPa NNE 0.4 mph /  0.6 km/h 2.3 mph /  3.7 km/h 64 % 0.00 in /  0 mm
14:17 35.7 °F /  2.1 °C 24.7 °F /  -4.1 °C 30.09 in /  1018.8 hPa ENE 1.5 mph /  2.4 km/h 3.5 mph /  5.6 km/h 64 % 0.00 in /  0 mm
14:22 35.4 °F /  1.9 °C 24.4 °F /  -4.2 °C 30.09 in /  1018.8 hPa NE 2.2 mph /  3.5 km/h 3.5 mph /  5.6 km/h 64 % 0.00 in /  0 mm
14:27 35.2 °F /  1.8 °C 24.2 °F /  -4.3 °C 30.09 in /  1018.8 hPa ENE 1.3 mph /  2.1 km/h 3.5 mph /  5.6 km/h 64 % 0.00 in /  0 mm
14:32 34.9 °F /  1.6 °C 24.7 °F /  -4.1 °C 30.09 in /  1018.8 hPa ENE 0.7 mph /  1.1 km/h 2.3 mph /  3.7 km/h 66 % 0.00 in /  0 mm
14:38 34.8 °F /  1.6 °C 24.6 °F /  -4.1 °C 30.09 in /  1018.8 hPa ENE 0.1 mph /  0.2 km/h 2.3 mph /  3.7 km/h 66 % 0.00 in /  0 mm
14:43 34.7 °F /  1.5 °C 24.5 °F /  -4.2 °C 30.09 in /  1018.8 hPa NE 1.3 mph /  2.1 km/h 3.5 mph /  5.6 km/h 66 % 0.00 in /  0 mm
14:48 34.6 °F /  1.4 °C 24.4 °F /  -4.2 °C 30.08 in /  1018.5 hPa ENE 1.8 mph /  2.9 km/h 3.5 mph /  5.6 km/h 66 % 0.00 in /  0 mm
14:53 34.4 °F /  1.3 °C 24.2 °F /  -4.3 °C 30.08 in /  1018.5 hPa NE 3.1 mph /  5 km/h 3.5 mph /  5.6 km/h 66 % 0.00 in /  0 mm
14:58 34.1 °F /  1.2 °C 24.3 °F /  -4.3 °C 30.08 in /  1018.5 hPa ENE 2.0 mph /  3.2 km/h 3.5 mph /  5.6 km/h 67 % 0.00 in /  0 mm
15:03 34.0 °F /  1.1 °C 24.2 °F /  -4.3 °C 30.08 in /  1018.5 hPa ENE 1.8 mph /  2.9 km/h 3.5 mph /  5.6 km/h 67 % 0.00 in /  0 mm
15:08 34.0 °F /  1.1 °C 24.5 °F /  -4.2 °C 30.09 in /  1018.8 hPa ENE 0.1 mph /  0.2 km/h 3.5 mph /  5.6 km/h 68 % 0.00 in /  0 mm
15:13 33.9 °F /  1.1 °C 24.4 °F /  -4.2 °C 30.09 in /  1018.8 hPa ENE 1.0 mph /  1.6 km/h 3.5 mph /  5.6 km/h 68 % 0.00 in /  0 mm
15:16 33.9 °F /  1.1 °C 24.8 °F /  -4 °C 30.09 in /  1018.8 hPa ENE 0.5 mph /  0.8 km/h 2.3 mph /  3.7 km/h 69 % 0.00 in /  0 mm
15:21 34.1 °F /  1.2 °C 25.0 °F /  -3.9 °C 30.09 in /  1018.8 hPa NE 1.5 mph /  2.4 km/h 3.5 mph /  5.6 km/h 69 % 0.00 in /  0 mm
15:26 34.1 °F /  1.2 °C 25.0 °F /  -3.9 °C 30.09 in /  1018.8 hPa ENE 0.5 mph /  0.8 km/h 3.5 mph /  5.6 km/h 69 % 0.00 in /  0 mm
15:31 34.1 °F /  1.2 °C 25.0 °F /  -3.9 °C 30.10 in /  1019.2 hPa ENE 2.2 mph /  3.5 km/h 3.5 mph /  5.6 km/h 69 % 0.00 in /  0 mm
15:36 34.1 °F /  1.2 °C 25.0 °F /  -3.9 °C 30.09 in /  1018.8 hPa ENE 1.1 mph /  1.8 km/h 2.3 mph /  3.7 km/h 69 % 0.00 in /  0 mm
15:41 34.1 °F /  1.2 °C 25.0 °F /  -3.9 °C 30.10 in /  1019.2 hPa ENE 1.4 mph /  2.3 km/h 3.5 mph /  5.6 km/h 69 % 0.00 in /  0 mm
15:46 33.9 °F /  1.1 °C 25.1 °F /  -3.8 °C 30.10 in /  1019.2 hPa ENE 0.5 mph /  0.8 km/h 3.0 mph /  4.8 km/h 70 % 0.00 in /  0 mm
15:52 33.9 °F /  1.1 °C 25.1 °F /  -3.8 °C 30.10 in /  1019.2 hPa ENE 1.4 mph /  2.3 km/h 2.3 mph /  3.7 km/h 70 % 0.00 in /  0 mm
15:57 33.9 °F /  1.1 °C 25.1 °F /  -3.8 °C 30.10 in /  1019.2 hPa ENE 1.4 mph /  2.3 km/h 2.3 mph /  3.7 km/h 70 % 0.00 in /  0 mm
16:02 33.9 °F /  1.1 °C 25.5 °F /  -3.6 °C 30.11 in /  1019.5 hPa ENE 0.9 mph /  1.4 km/h 2.3 mph /  3.7 km/h 71 % 0.00 in /  0 mm
16:07 33.9 °F /  1.1 °C 25.5 °F /  -3.6 °C 30.10 in /  1019.2 hPa ENE 1.3 mph /  2.1 km/h 2.3 mph /  3.7 km/h 71 % 0.00 in /  0 mm
16:12 33.8 °F /  1 °C 25.4 °F /  -3.7 °C 30.11 in /  1019.5 hPa ENE 0.5 mph /  0.8 km/h 2.3 mph /  3.7 km/h 71 % 0.00 in /  0 mm
16:17 33.8 °F /  1 °C 25.4 °F /  -3.7 °C 30.12 in /  1019.9 hPa Calm   1.2 mph /  1.9 km/h 71 % 0.00 in /  0 mm
16:22 33.7 °F /  0.9 °C 25.0 °F /  -3.9 °C 30.11 in /  1019.5 hPa Calm     70 % 0.00 in /  0 mm
16:27 33.7 °F /  0.9 °C 25.0 °F /  -3.9 °C 30.12 in /  1019.9 hPa Calm     70 % 0.00 in /  0 mm
16:32 33.7 °F /  0.9 °C 25.3 °F /  -3.7 °C 30.12 in /  1019.9 hPa Calm     71 % 0.00 in /  0 mm
16:37 33.6 °F /  0.9 °C 25.2 °F /  -3.8 °C 30.12 in /  1019.9 hPa Calm     71 % 0.00 in /  0 mm
16:42 33.6 °F /  0.9 °C 24.9 °F /  -3.9 °C 30.13 in /  1020.2 hPa Calm     70 % 0.00 in /  0 mm
16:47 33.6 °F /  0.9 °C 25.2 °F /  -3.8 °C 30.13 in /  1020.2 hPa Calm     71 % 0.00 in /  0 mm
16:52 33.5 °F /  0.8 °C 25.1 °F /  -3.8 °C 30.14 in /  1020.5 hPa Calm     71 % 0.00 in /  0 mm
16:57 33.5 °F /  0.8 °C 24.8 °F /  -4 °C 30.14 in /  1020.5 hPa Calm     70 % 0.00 in /  0 mm
17:02 33.5 °F /  0.8 °C 25.1 °F /  -3.8 °C 30.14 in /  1020.5 hPa Calm     71 % 0.00 in /  0 mm
17:07 33.4 °F /  0.8 °C 25.0 °F /  -3.9 °C 30.14 in /  1020.5 hPa Calm     71 % 0.00 in /  0 mm
17:13 33.3 °F /  0.7 °C 25.2 °F /  -3.8 °C 30.14 in /  1020.5 hPa Calm     72 % 0.00 in /  0 mm
17:18 33.2 °F /  0.7 °C 25.1 °F /  -3.8 °C 30.13 in /  1020.2 hPa Calm     72 % 0.00 in /  0 mm
17:23 33.1 °F /  0.6 °C 25.1 °F /  -3.8 °C 30.14 in /  1020.5 hPa Calm     72 % 0.00 in /  0 mm
17:28 33.0 °F /  0.6 °C 25.0 °F /  -3.9 °C 30.14 in /  1020.5 hPa Calm     72 % 0.00 in /  0 mm
17:33 32.8 °F /  0.4 °C 24.8 °F /  -4 °C 30.14 in /  1020.5 hPa Calm     72 % 0.00 in /  0 mm
17:38 32.7 °F /  0.4 °C 24.7 °F /  -4.1 °C 30.15 in /  1020.9 hPa Calm     72 % 0.00 in /  0 mm
17:43 32.5 °F /  0.3 °C 24.5 °F /  -4.2 °C 30.15 in /  1020.9 hPa Calm     72 % 0.00 in /  0 mm
17:48 32.4 °F /  0.2 °C 24.4 °F /  -4.2 °C 30.15 in /  1020.9 hPa Calm     72 % 0.00 in /  0 mm
17:53 32.2 °F /  0.1 °C 24.5 °F /  -4.2 °C 30.15 in /  1020.9 hPa Calm     73 % 0.00 in /  0 mm
17:58 32.0 °F /  0 °C 24.3 °F /  -4.3 °C 30.15 in /  1020.9 hPa Calm     73 % 0.00 in /  0 mm
18:03 31.8 °F /  -0.1 °C 24.1 °F /  -4.4 °C 30.16 in /  1021.2 hPa Calm     73 % 0.00 in /  0 mm
18:08 31.7 °F /  -0.2 °C 24.4 °F /  -4.2 °C 30.17 in /  1021.6 hPa Calm     74 % 0.00 in /  0 mm
18:13 31.5 °F /  -0.3 °C 24.2 °F /  -4.3 °C 30.17 in /  1021.6 hPa Calm     74 % 0.00 in /  0 mm
18:18 31.3 °F /  -0.4 °C 24.3 °F /  -4.3 °C 30.17 in /  1021.6 hPa ENE 0.3 mph /  0.5 km/h 1.2 mph /  1.9 km/h 75 % 0.00 in /  0 mm
18:23 31.1 °F /  -0.5 °C 24.4 °F /  -4.2 °C 30.17 in /  1021.6 hPa Calm     76 % 0.00 in /  0 mm
18:28 30.9 °F /  -0.6 °C 24.2 °F /  -4.3 °C 30.18 in /  1021.9 hPa Calm     76 % 0.00 in /  0 mm
18:33 30.7 °F /  -0.7 °C 24.3 °F /  -4.3 °C 30.18 in /  1021.9 hPa Calm     77 % 0.00 in /  0 mm
18:39 30.5 °F /  -0.8 °C 24.1 °F /  -4.4 °C 30.18 in /  1021.9 hPa Calm     77 % 0.00 in /  0 mm
18:44 30.3 °F /  -0.9 °C 24.0 °F /  -4.4 °C 30.18 in /  1021.9 hPa Calm     77 % 0.00 in /  0 mm
18:49 30.1 °F /  -1.1 °C 24.1 °F /  -4.4 °C 30.18 in /  1021.9 hPa Calm     78 % 0.00 in /  0 mm
18:54 30.0 °F /  -1.1 °C 24.0 °F /  -4.4 °C 30.19 in /  1022.2 hPa Calm     78 % 0.00 in /  0 mm
18:59 29.9 °F /  -1.2 °C 23.9 °F /  -4.5 °C 30.19 in /  1022.2 hPa Calm     78 % 0.00 in /  0 mm
19:04 29.7 °F /  -1.3 °C 24.0 °F /  -4.4 °C 30.19 in /  1022.2 hPa Calm     79 % 0.00 in /  0 mm
19:09 29.5 °F /  -1.4 °C 23.8 °F /  -4.6 °C 30.19 in /  1022.2 hPa Calm     79 % 0.00 in /  0 mm
19:14 29.4 °F /  -1.4 °C 23.7 °F /  -4.6 °C 30.19 in /  1022.2 hPa Calm     79 % 0.00 in /  0 mm
19:19 29.2 °F /  -1.6 °C 23.5 °F /  -4.7 °C 30.19 in /  1022.2 hPa ENE 1.0 mph /  1.6 km/h 2.3 mph /  3.7 km/h 79 % 0.00 in /  0 mm
19:24 29.1 °F /  -1.6 °C 23.7 °F /  -4.6 °C 30.20 in /  1022.6 hPa Calm     80 % 0.00 in /  0 mm
19:29 29.0 °F /  -1.7 °C 23.6 °F /  -4.7 °C 30.20 in /  1022.6 hPa Calm     80 % 0.00 in /  0 mm
19:34 28.8 °F /  -1.8 °C 23.1 °F /  -4.9 °C 30.20 in /  1022.6 hPa Calm     79 % 0.00 in /  0 mm
19:39 28.7 °F /  -1.8 °C 23.0 °F /  -5 °C 30.21 in /  1022.9 hPa Calm     79 % 0.00 in /  0 mm
19:44 28.6 °F /  -1.9 °C 23.2 °F /  -4.9 °C 30.21 in /  1022.9 hPa Calm     80 % 0.00 in /  0 mm
19:49 28.5 °F /  -1.9 °C 23.1 °F /  -4.9 °C 30.21 in /  1022.9 hPa Calm     80 % 0.00 in /  0 mm
19:54 28.4 °F /  -2 °C 23.3 °F /  -4.8 °C 30.22 in /  1023.2 hPa Calm     81 % 0.00 in /  0 mm
20:00 28.2 °F /  -2.1 °C 23.1 °F /  -4.9 °C 30.22 in /  1023.2 hPa Calm     81 % 0.00 in /  0 mm
20:05 28.1 °F /  -2.2 °C 23.0 °F /  -5 °C 30.22 in /  1023.2 hPa Calm     81 % 0.00 in /  0 mm
20:10 28.1 °F /  -2.2 °C 23.3 °F /  -4.8 °C 30.23 in /  1023.6 hPa Calm   1.2 mph /  1.9 km/h 82 % 0.00 in /  0 mm
20:15 28.0 °F /  -2.2 °C 23.2 °F /  -4.9 °C 30.23 in /  1023.6 hPa Calm     82 % 0.00 in /  0 mm
20:20 27.9 °F /  -2.3 °C 23.4 °F /  -4.8 °C 30.23 in /  1023.6 hPa ENE 0.9 mph /  1.4 km/h 2.3 mph /  3.7 km/h 83 % 0.00 in /  0 mm
20:25 27.8 °F /  -2.3 °C 23.3 °F /  -4.8 °C 30.24 in /  1023.9 hPa Calm     83 % 0.00 in /  0 mm
20:30 27.8 °F /  -2.3 °C 23.3 °F /  -4.8 °C 30.24 in /  1023.9 hPa Calm     83 % 0.00 in /  0 mm
20:35 27.8 °F /  -2.3 °C 23.3 °F /  -4.8 °C 30.24 in /  1023.9 hPa Calm     83 % 0.00 in /  0 mm
20:40 27.7 °F /  -2.4 °C 23.2 °F /  -4.9 °C 30.24 in /  1023.9 hPa Calm     83 % 0.00 in /  0 mm
20:45 27.7 °F /  -2.4 °C 23.2 °F /  -4.9 °C 30.24 in /  1023.9 hPa Calm     83 % 0.00 in /  0 mm
20:50 27.6 °F /  -2.4 °C 23.1 °F /  -4.9 °C 30.24 in /  1023.9 hPa Calm     83 % 0.00 in /  0 mm
20:55 27.5 °F /  -2.5 °C 23.0 °F /  -5 °C 30.24 in /  1023.9 hPa Calm     83 % 0.00 in /  0 mm
21:00 27.4 °F /  -2.6 °C 22.9 °F /  -5.1 °C 30.24 in /  1023.9 hPa Calm     83 % 0.00 in /  0 mm
21:05 27.4 °F /  -2.6 °C 22.9 °F /  -5.1 °C 30.24 in /  1023.9 hPa Calm     83 % 0.00 in /  0 mm
21:10 27.3 °F /  -2.6 °C 22.8 °F /  -5.1 °C 30.24 in /  1023.9 hPa Calm     83 % 0.00 in /  0 mm
21:15 27.2 °F /  -2.7 °C 22.7 °F /  -5.2 °C 30.24 in /  1023.9 hPa Calm     83 % 0.00 in /  0 mm
21:21 27.1 °F /  -2.7 °C 22.6 °F /  -5.2 °C 30.24 in /  1023.9 hPa Calm     83 % 0.00 in /  0 mm
21:26 27.0 °F /  -2.8 °C 22.8 °F /  -5.1 °C 30.24 in /  1023.9 hPa Calm     84 % 0.00 in /  0 mm
21:31 27.0 °F /  -2.8 °C 22.8 °F /  -5.1 °C 30.24 in /  1023.9 hPa Calm     84 % 0.00 in /  0 mm
21:36 26.9 °F /  -2.8 °C 22.7 °F /  -5.2 °C 30.24 in /  1023.9 hPa Calm     84 % 0.00 in /  0 mm
21:41 26.8 °F /  -2.9 °C 22.6 °F /  -5.2 °C 30.24 in /  1023.9 hPa Calm     84 % 0.00 in /  0 mm
21:46 26.7 °F /  -2.9 °C 22.8 °F /  -5.1 °C 30.24 in /  1023.9 hPa Calm     85 % 0.00 in /  0 mm
21:51 26.6 °F /  -3 °C 22.7 °F /  -5.2 °C 30.24 in /  1023.9 hPa Calm     85 % 0.00 in /  0 mm
21:56 26.5 °F /  -3.1 °C 22.6 °F /  -5.2 °C 30.24 in /  1023.9 hPa Calm     85 % 0.00 in /  0 mm
22:01 26.5 °F /  -3.1 °C 22.6 °F /  -5.2 °C 30.24 in /  1023.9 hPa Calm     85 % 0.00 in /  0 mm
22:06 26.4 °F /  -3.1 °C 22.5 °F /  -5.3 °C 30.24 in /  1023.9 hPa Calm     85 % 0.00 in /  0 mm
22:11 26.3 °F /  -3.2 °C 22.4 °F /  -5.3 °C 30.24 in /  1023.9 hPa Calm     85 % 0.00 in /  0 mm
22:16 26.3 °F /  -3.2 °C 22.7 °F /  -5.2 °C 30.25 in /  1024.3 hPa Calm     86 % 0.00 in /  0 mm
22:21 26.3 °F /  -3.2 °C 22.7 °F /  -5.2 °C 30.25 in /  1024.3 hPa Calm     86 % 0.00 in /  0 mm
22:26 26.3 °F /  -3.2 °C 22.7 °F /  -5.2 °C 30.25 in /  1024.3 hPa Calm   1.2 mph /  1.9 km/h 86 % 0.00 in /  0 mm
22:31 26.3 °F /  -3.2 °C 22.7 °F /  -5.2 °C 30.25 in /  1024.3 hPa Calm     86 % 0.00 in /  0 mm
22:36 26.3 °F /  -3.2 °C 23.0 °F /  -5 °C 30.24 in /  1023.9 hPa Calm     87 % 0.00 in /  0 mm
22:41 26.3 °F /  -3.2 °C 23.0 °F /  -5 °C 30.24 in /  1023.9 hPa Calm     87 % 0.00 in /  0 mm
22:46 26.3 °F /  -3.2 °C 23.0 °F /  -5 °C 30.24 in /  1023.9 hPa Calm     87 % 0.00 in /  0 mm
22:51 26.3 °F /  -3.2 °C 23.0 °F /  -5 °C 30.23 in /  1023.6 hPa Calm     87 % 0.00 in /  0 mm
22:56 26.3 °F /  -3.2 °C 23.0 °F /  -5 °C 30.24 in /  1023.9 hPa Calm     87 % 0.00 in /  0 mm
23:01 26.3 °F /  -3.2 °C 23.0 °F /  -5 °C 30.24 in /  1023.9 hPa Calm     87 % 0.00 in /  0 mm
23:06 26.3 °F /  -3.2 °C 23.0 °F /  -5 °C 30.25 in /  1024.3 hPa Calm     87 % 0.00 in /  0 mm
23:11 26.3 °F /  -3.2 °C 23.2 °F /  -4.9 °C 30.25 in /  1024.3 hPa ENE 0.3 mph /  0.5 km/h 1.2 mph /  1.9 km/h 88 % 0.00 in /  0 mm
23:16 26.3 °F /  -3.2 °C 23.2 °F /  -4.9 °C 30.25 in /  1024.3 hPa Calm   1.2 mph /  1.9 km/h 88 % 0.00 in /  0 mm
23:21 26.4 °F /  -3.1 °C 23.3 °F /  -4.8 °C 30.26 in /  1024.6 hPa Calm     88 % 0.00 in /  0 mm
23:26 26.4 °F /  -3.1 °C 23.3 °F /  -4.8 °C 30.25 in /  1024.3 hPa East 1.3 mph /  2.1 km/h 2.0 mph /  3.2 km/h 88 % 0.00 in /  0 mm
23:32 26.5 °F /  -3.1 °C 23.4 °F /  -4.8 °C 30.25 in /  1024.3 hPa East 0.4 mph /  0.6 km/h 2.0 mph /  3.2 km/h 88 % 0.00 in /  0 mm
23:37 26.5 °F /  -3.1 °C 23.4 °F /  -4.8 °C 30.25 in /  1024.3 hPa East 0.2 mph /  0.3 km/h 1.0 mph /  1.6 km/h 88 % 0.00 in /  0 mm
23:42 26.6 °F /  -3 °C 23.5 °F /  -4.7 °C 30.26 in /  1024.6 hPa Calm     88 % 0.00 in /  0 mm
23:47 26.7 °F /  -2.9 °C 23.6 °F /  -4.7 °C 30.25 in /  1024.3 hPa Calm     88 % 0.00 in /  0 mm
23:52 26.7 °F /  -2.9 °C 23.6 °F /  -4.7 °C 30.25 in /  1024.3 hPa East 0.1 mph /  0.2 km/h 1.2 mph /  1.9 km/h 88 % 0.00 in /  0 mm
23:57 26.7 °F /  -2.9 °C 23.6 °F /  -4.7 °C 30.25 in /  1024.3 hPa Calm     88 % 0.00 in /  0 mm
Crab Meadow Weather
Compliments of Weather Underground - 3 mb

Script developed by  Jim McMurry - jmcmurry@mwt.net Adapted for the template by  Wim van der Kuil - Leuven-Template.eu

Extremes: A total of 1,224.5 inches of snow fell over a 12-month period from February 1971 to February 1972 at Paradise, Mt. Ranier, in Washington State.